createdAt,value
2022-12-26T00:00:38.143Z,69.40
2022-12-26T00:01:38.074Z,91.70
2022-12-26T00:02:38.170Z,67.50
2022-12-26T00:03:38.151Z,102.30
2022-12-26T00:04:50.023Z,110.50
2022-12-26T00:05:38.132Z,56.10
2022-12-26T00:06:38.025Z,112.20
2022-12-26T00:07:38.019Z,80.90
2022-12-26T00:08:37.995Z,38.50
2022-12-26T00:09:37.997Z,49.10
2022-12-26T00:10:37.988Z,54.50
2022-12-26T00:11:37.967Z,43.90
2022-12-26T00:12:37.951Z,61.50
2022-12-26T00:13:41.405Z,94.60
2022-12-26T00:14:37.942Z,86.50
2022-12-26T00:15:37.917Z,86.70
2022-12-26T00:16:37.982Z,65.60
2022-12-26T00:17:37.918Z,78.80
2022-12-26T00:18:37.883Z,30.70
2022-12-26T00:19:37.878Z,54.20
2022-12-26T00:20:37.875Z,42.10
2022-12-26T00:21:37.847Z,70.90
2022-12-26T00:22:37.891Z,76.50
2022-12-26T00:23:37.829Z,37.40
2022-12-26T00:24:37.823Z,76.40
2022-12-26T00:25:37.805Z,34.20
2022-12-26T00:26:37.806Z,39.40
2022-12-26T00:27:37.808Z,51.90
2022-12-26T00:28:37.771Z,55.90
2022-12-26T00:29:37.761Z,72.10
2022-12-26T00:30:37.749Z,67.70
2022-12-26T00:31:37.831Z,46.30
2022-12-26T00:32:37.739Z,51.60
2022-12-26T00:33:37.752Z,60.40
2022-12-26T00:34:37.731Z,60.50
2022-12-26T00:35:37.697Z,33.40
2022-12-26T00:36:37.694Z,34.10
2022-12-26T00:37:37.681Z,35.60
2022-12-26T00:38:37.681Z,64.60
2022-12-26T00:39:37.675Z,90.70
2022-12-26T00:40:37.652Z,40.60
2022-12-26T00:41:37.649Z,33.70
2022-12-26T00:42:37.624Z,33.80
2022-12-26T00:43:37.638Z,50.80
2022-12-26T00:44:37.597Z,44.00
2022-12-26T00:45:37.604Z,62.40
2022-12-26T00:46:37.651Z,50.30
2022-12-26T00:47:37.590Z,48.70
2022-12-26T00:48:37.564Z,70.40
2022-12-26T00:50:14.350Z,46.10
2022-12-26T00:50:37.563Z,46.10
2022-12-26T00:51:37.523Z,53.70
2022-12-26T00:52:37.537Z,46.90
2022-12-26T00:53:37.508Z,65.80
2022-12-26T00:54:37.494Z,47.60
2022-12-26T00:55:37.484Z,36.00
2022-12-26T00:56:37.495Z,34.30
2022-12-26T00:57:37.475Z,50.30
2022-12-26T00:58:37.467Z,45.80
2022-12-26T00:59:37.451Z,60.70
2022-12-26T01:00:37.521Z,56.90
2022-12-26T01:01:37.687Z,63.60
2022-12-26T01:02:37.510Z,56.10
2022-12-26T01:03:37.403Z,42.60
2022-12-26T01:04:37.400Z,41.70
2022-12-26T01:05:37.383Z,67.20
2022-12-26T01:06:37.367Z,71.50
2022-12-26T01:08:22.443Z,57.90
2022-12-26T01:08:37.349Z,59.50
2022-12-26T01:09:37.333Z,63.10
2022-12-26T01:10:37.336Z,54.00
2022-12-26T01:11:37.362Z,61.70
2022-12-26T01:12:37.299Z,53.60
2022-12-26T01:13:37.342Z,42.90
2022-12-26T01:14:37.287Z,60.90
2022-12-26T01:15:37.267Z,62.30
2022-12-26T01:16:37.384Z,59.60
2022-12-26T01:17:37.283Z,34.90
2022-12-26T01:18:37.246Z,81.50
2022-12-26T01:19:37.252Z,70.50
2022-12-26T01:20:37.225Z,75.70
2022-12-26T01:21:37.224Z,84.20
2022-12-26T01:22:37.195Z,112.90
2022-12-26T01:23:37.188Z,65.30
2022-12-26T01:24:37.194Z,61.80
2022-12-26T01:25:37.174Z,96.10
2022-12-26T01:26:37.167Z,77.40
2022-12-26T01:27:37.141Z,41.90
2022-12-26T01:28:37.127Z,67.90
2022-12-26T01:29:37.113Z,61.80
2022-12-26T01:30:37.127Z,76.60
2022-12-26T01:31:37.173Z,79.30
2022-12-26T01:32:37.095Z,53.70
2022-12-26T01:33:37.099Z,68.40
2022-12-26T01:34:37.067Z,76.10
2022-12-26T01:35:37.063Z,29.10
2022-12-26T01:36:37.061Z,65.70
2022-12-26T01:37:37.029Z,70.10
2022-12-26T01:38:37.052Z,132.50
2022-12-26T01:39:37.014Z,60.40
2022-12-26T01:40:37.006Z,148.10
2022-12-26T01:41:37.704Z,81.70
2022-12-26T01:42:37.003Z,29.60
2022-12-26T01:43:36.971Z,33.80
2022-12-26T01:44:36.962Z,63.60
2022-12-26T01:45:37.028Z,79.80
2022-12-26T01:46:36.946Z,94.30
2022-12-26T01:47:36.971Z,74.40
2022-12-26T01:48:36.928Z,69.70
2022-12-26T01:49:36.902Z,83.60
2022-12-26T01:50:36.895Z,63.30
2022-12-26T01:51:36.880Z,52.50
2022-12-26T01:52:36.888Z,57.50
2022-12-26T01:53:36.874Z,37.70
2022-12-26T01:54:41.456Z,35.80
2022-12-26T01:55:36.837Z,46.20
2022-12-26T01:56:36.823Z,77.20
2022-12-26T01:57:36.832Z,56.90
2022-12-26T01:58:36.810Z,41.60
2022-12-26T01:59:36.790Z,80.90
2022-12-26T02:00:36.832Z,52.50
2022-12-26T02:01:36.864Z,35.10
2022-12-26T02:02:36.928Z,74.20
2022-12-26T02:03:36.761Z,83.70
2022-12-26T02:04:36.751Z,94.30
2022-12-26T02:05:36.743Z,75.00
2022-12-26T02:06:36.720Z,78.20
2022-12-26T02:07:36.720Z,61.00
2022-12-26T02:08:36.727Z,117.40
2022-12-26T02:09:36.684Z,77.70
2022-12-26T02:10:36.688Z,117.00
2022-12-26T02:11:36.674Z,65.90
2022-12-26T02:12:38.720Z,71.20
2022-12-26T02:13:36.641Z,64.00
2022-12-26T02:14:36.648Z,54.10
2022-12-26T02:15:36.620Z,43.20
2022-12-26T02:16:36.670Z,66.00
2022-12-26T02:17:36.599Z,88.40
2022-12-26T02:18:36.603Z,50.70
2022-12-26T02:19:36.574Z,82.70
2022-12-26T02:20:36.585Z,74.30
2022-12-26T02:21:36.561Z,115.10
2022-12-26T02:22:36.553Z,56.60
2022-12-26T02:23:36.543Z,74.90
2022-12-26T02:24:36.528Z,85.20
2022-12-26T02:25:36.540Z,69.20
2022-12-26T02:26:36.506Z,106.80
2022-12-26T02:27:36.493Z,51.20
2022-12-26T02:28:36.488Z,76.30
2022-12-26T02:29:36.478Z,137.50
2022-12-26T02:30:36.456Z,61.40
2022-12-26T02:31:36.530Z,125.10
2022-12-26T02:32:36.438Z,72.60
2022-12-26T02:33:36.432Z,93.50
2022-12-26T02:34:36.409Z,69.30
2022-12-26T02:35:36.408Z,47.90
2022-12-26T02:36:36.407Z,59.80
2022-12-26T02:37:36.417Z,32.00
2022-12-26T02:38:36.394Z,59.00
2022-12-26T02:39:44.486Z,48.60
2022-12-26T02:40:36.376Z,60.20
2022-12-26T02:41:36.340Z,59.60
2022-12-26T02:42:36.341Z,80.10
2022-12-26T02:43:36.319Z,77.10
2022-12-26T02:44:36.311Z,125.70
2022-12-26T02:45:36.383Z,104.50
2022-12-26T02:46:36.302Z,103.40
2022-12-26T02:47:36.293Z,59.10
2022-12-26T02:48:36.271Z,64.60
2022-12-26T02:49:36.256Z,57.10
2022-12-26T02:50:36.246Z,50.10
2022-12-26T02:51:36.234Z,45.00
2022-12-26T02:52:36.212Z,56.10
2022-12-26T02:53:36.221Z,44.40
2022-12-26T02:54:36.196Z,35.80
2022-12-26T02:55:36.185Z,37.40
2022-12-26T02:56:36.176Z,38.70
2022-12-26T02:57:36.167Z,53.70
2022-12-26T02:58:36.167Z,52.90
2022-12-26T02:59:53.854Z,62.30
2022-12-26T03:00:36.155Z,59.20
2022-12-26T03:01:36.261Z,88.20
2022-12-26T03:02:36.195Z,49.20
2022-12-26T03:03:36.115Z,61.60
2022-12-26T03:04:36.082Z,49.60
2022-12-26T03:05:36.082Z,42.50
2022-12-26T03:06:36.080Z,79.80
2022-12-26T03:07:36.058Z,65.90
2022-12-26T03:08:36.048Z,66.90
2022-12-26T03:09:36.046Z,67.20
2022-12-26T03:10:36.030Z,100.00
2022-12-26T03:11:36.039Z,49.50
2022-12-26T03:12:35.989Z,79.80
2022-12-26T03:13:35.997Z,70.00
2022-12-26T03:14:35.995Z,36.40
2022-12-26T03:15:35.967Z,42.50
2022-12-26T03:16:36.041Z,75.40
2022-12-26T03:17:35.965Z,64.80
2022-12-26T03:18:57.094Z,45.50
2022-12-26T03:19:35.927Z,35.80
2022-12-26T03:20:35.946Z,60.10
2022-12-26T03:21:35.921Z,44.70
2022-12-26T03:22:35.918Z,74.30
2022-12-26T03:23:35.885Z,101.20
2022-12-26T03:24:35.864Z,30.70
2022-12-26T03:25:35.850Z,101.40
2022-12-26T03:26:35.856Z,56.10
2022-12-26T03:27:35.884Z,39.10
2022-12-26T03:28:35.821Z,57.10
2022-12-26T03:29:35.831Z,33.70
2022-12-26T03:30:35.836Z,33.70
2022-12-26T03:31:35.797Z,61.00
2022-12-26T03:32:35.790Z,82.50
2022-12-26T03:33:35.806Z,56.90
2022-12-26T03:34:35.757Z,62.90
2022-12-26T03:35:35.750Z,98.20
2022-12-26T03:36:35.730Z,33.30
2022-12-26T03:37:47.433Z,31.10
2022-12-26T03:38:35.767Z,55.20
2022-12-26T03:39:35.698Z,67.10
2022-12-26T03:40:35.706Z,74.60
2022-12-26T03:41:35.690Z,39.30
2022-12-26T03:42:35.671Z,89.90
2022-12-26T03:43:35.693Z,38.60
2022-12-26T03:44:35.662Z,47.20
2022-12-26T03:45:35.655Z,33.40
2022-12-26T03:46:35.705Z,81.30
2022-12-26T03:47:35.635Z,73.60
2022-12-26T03:48:35.630Z,45.30
2022-12-26T03:49:35.614Z,50.90
2022-12-26T03:50:35.593Z,46.70
2022-12-26T03:51:35.573Z,66.80
2022-12-26T03:52:35.561Z,67.00
2022-12-26T03:53:35.556Z,102.10
2022-12-26T03:54:35.560Z,104.10
2022-12-26T03:55:35.560Z,137.00
2022-12-26T03:56:35.521Z,75.00
2022-12-26T03:57:35.625Z,89.20
2022-12-26T03:58:35.497Z,115.60
2022-12-26T03:59:35.637Z,99.90
2022-12-26T04:00:35.475Z,77.60
2022-12-26T04:01:35.700Z,49.80
2022-12-26T04:02:35.612Z,45.20
2022-12-26T04:03:35.589Z,51.80
2022-12-26T04:04:35.424Z,55.30
2022-12-26T04:05:35.421Z,33.00
2022-12-26T04:06:35.419Z,42.70
2022-12-26T04:07:35.614Z,46.30
2022-12-26T04:08:35.404Z,48.40
2022-12-26T04:09:35.393Z,53.40
2022-12-26T04:10:35.376Z,52.60
2022-12-26T04:11:35.347Z,47.70
2022-12-26T04:12:35.398Z,70.00
2022-12-26T04:13:35.345Z,71.00
2022-12-26T04:14:35.322Z,79.40
2022-12-26T04:15:35.375Z,66.50
2022-12-26T04:16:35.300Z,115.00
2022-12-26T04:17:35.437Z,100.90
2022-12-26T04:18:35.297Z,62.50
2022-12-26T04:19:35.273Z,78.90
2022-12-26T04:20:35.266Z,63.50
2022-12-26T04:21:35.250Z,83.20
2022-12-26T04:22:35.237Z,53.40
2022-12-26T04:23:35.225Z,59.50
2022-12-26T04:24:35.233Z,121.30
2022-12-26T04:25:50.882Z,41.30
2022-12-26T04:26:35.197Z,89.50
2022-12-26T04:27:35.182Z,65.70
2022-12-26T04:28:35.182Z,70.30
2022-12-26T04:29:35.156Z,110.90
2022-12-26T04:30:35.185Z,64.00
2022-12-26T04:31:35.190Z,45.80
2022-12-26T04:32:35.129Z,49.30
2022-12-26T04:33:35.123Z,87.40
2022-12-26T04:34:35.103Z,69.80
2022-12-26T04:35:35.095Z,57.00
2022-12-26T04:36:35.105Z,37.30
2022-12-26T04:37:35.072Z,45.40
2022-12-26T04:38:35.063Z,68.80
2022-12-26T04:39:35.046Z,103.90
2022-12-26T04:40:35.043Z,80.10
2022-12-26T04:41:35.064Z,42.40
2022-12-26T04:42:35.015Z,36.60
2022-12-26T04:43:46.639Z,41.00
2022-12-26T04:44:34.997Z,47.00
2022-12-26T04:45:34.989Z,30.10
2022-12-26T04:46:35.084Z,56.00
2022-12-26T04:47:34.991Z,59.10
2022-12-26T04:48:34.955Z,25.90
2022-12-26T04:49:34.947Z,36.80
2022-12-26T04:50:34.931Z,40.10
2022-12-26T04:51:34.914Z,84.80
2022-12-26T04:52:34.926Z,50.20
2022-12-26T04:53:34.912Z,51.00
2022-12-26T04:54:34.888Z,42.10
2022-12-26T04:55:34.871Z,50.80
2022-12-26T04:56:34.865Z,95.20
2022-12-26T04:57:34.876Z,52.50
2022-12-26T04:58:34.858Z,58.60
2022-12-26T04:59:34.831Z,68.90
2022-12-26T05:00:34.823Z,39.90
2022-12-26T05:01:35.022Z,37.40
2022-12-26T05:02:35.049Z,52.20
2022-12-26T05:03:34.899Z,36.90
2022-12-26T05:04:34.791Z,40.60
2022-12-26T05:05:41.327Z,44.20
2022-12-26T05:06:34.750Z,39.80
2022-12-26T05:07:34.747Z,86.60
2022-12-26T05:08:34.737Z,45.30
2022-12-26T05:09:34.744Z,90.60
2022-12-26T05:10:34.721Z,48.70
2022-12-26T05:11:34.707Z,34.50
2022-12-26T05:12:34.696Z,48.50
2022-12-26T05:13:34.688Z,67.70
2022-12-26T05:14:34.679Z,60.90
2022-12-26T05:15:34.746Z,66.60
2022-12-26T05:16:34.658Z,79.30
2022-12-26T05:17:34.639Z,59.70
2022-12-26T05:18:34.632Z,58.80
2022-12-26T05:19:34.646Z,67.40
2022-12-26T05:20:34.629Z,61.40
2022-12-26T05:21:34.596Z,60.20
2022-12-26T05:22:34.582Z,57.90
2022-12-26T05:23:34.582Z,48.30
2022-12-26T05:24:34.563Z,68.70
2022-12-26T05:25:34.555Z,51.00
2022-12-26T05:26:34.561Z,43.40
2022-12-26T05:27:34.534Z,72.40
2022-12-26T05:28:34.558Z,71.30
2022-12-26T05:29:34.503Z,49.10
2022-12-26T05:30:34.502Z,65.20
2022-12-26T05:31:36.440Z,64.80
2022-12-26T05:32:34.486Z,62.40
2022-12-26T05:33:34.466Z,45.50
2022-12-26T05:34:34.452Z,63.00
2022-12-26T05:35:34.437Z,72.30
2022-12-26T05:36:34.453Z,57.40
2022-12-26T05:37:34.470Z,45.70
2022-12-26T05:38:34.414Z,50.30
2022-12-26T05:39:34.397Z,43.00
2022-12-26T05:40:34.394Z,54.80
2022-12-26T05:41:34.396Z,46.10
2022-12-26T05:42:34.384Z,49.60
2022-12-26T05:43:34.354Z,60.90
2022-12-26T05:44:34.351Z,72.20
2022-12-26T05:45:34.335Z,61.90
2022-12-26T05:46:34.448Z,44.70
2022-12-26T05:47:34.314Z,40.50
2022-12-26T05:48:34.333Z,44.80
2022-12-26T05:49:34.303Z,51.30
2022-12-26T05:50:34.300Z,38.30
2022-12-26T05:51:34.282Z,59.30
2022-12-26T05:52:34.263Z,39.50
2022-12-26T05:53:34.252Z,50.90
2022-12-26T05:54:34.268Z,57.10
2022-12-26T05:55:34.248Z,26.40
2022-12-26T05:56:34.208Z,39.80
2022-12-26T05:57:34.219Z,32.30
2022-12-26T05:58:34.191Z,35.80
2022-12-26T05:59:34.226Z,45.40
2022-12-26T06:00:34.164Z,31.20
2022-12-26T06:01:34.310Z,28.40
2022-12-26T06:02:34.257Z,38.40
2022-12-26T06:03:34.220Z,35.30
2022-12-26T06:04:34.145Z,35.60
2022-12-26T06:05:34.132Z,32.20
2022-12-26T06:06:34.099Z,31.50
2022-12-26T06:07:34.116Z,38.10
2022-12-26T06:08:34.108Z,44.60
2022-12-26T06:09:34.070Z,43.80
2022-12-26T06:10:34.063Z,57.80
2022-12-26T06:11:34.091Z,30.30
2022-12-26T06:12:34.043Z,52.70
2022-12-26T06:13:34.047Z,53.70
2022-12-26T06:14:34.022Z,31.00
2022-12-26T06:15:34.020Z,31.60
2022-12-26T06:16:34.151Z,31.20
2022-12-26T06:17:33.987Z,56.90
2022-12-26T06:18:33.989Z,63.60
2022-12-26T06:19:33.967Z,36.20
2022-12-26T06:20:33.962Z,45.80
2022-12-26T06:21:33.966Z,36.90
2022-12-26T06:22:33.969Z,44.10
2022-12-26T06:23:33.936Z,52.10
2022-12-26T06:24:33.916Z,35.80
2022-12-26T06:25:33.897Z,35.40
2022-12-26T06:26:33.891Z,45.70
2022-12-26T06:27:33.872Z,52.00
2022-12-26T06:28:33.880Z,34.40
2022-12-26T06:29:33.852Z,27.90
2022-12-26T06:30:33.842Z,37.50
2022-12-26T06:31:33.930Z,37.60
2022-12-26T06:32:33.840Z,40.40
2022-12-26T06:33:33.828Z,48.20
2022-12-26T06:34:33.813Z,45.00
2022-12-26T06:35:33.793Z,74.50
2022-12-26T06:36:33.779Z,63.90
2022-12-26T06:37:33.777Z,45.10
2022-12-26T06:38:33.777Z,43.40
2022-12-26T06:39:33.791Z,31.00
2022-12-26T06:40:33.746Z,28.30
2022-12-26T06:41:33.741Z,28.80
2022-12-26T06:42:33.728Z,34.40
2022-12-26T06:43:33.709Z,44.50
2022-12-26T06:44:33.715Z,26.90
2022-12-26T06:45:33.679Z,36.40
2022-12-26T06:46:33.682Z,35.00
2022-12-26T06:47:33.668Z,35.20
2022-12-26T06:48:33.648Z,41.80
2022-12-26T06:49:33.652Z,23.00
2022-12-26T06:50:33.642Z,26.50
2022-12-26T06:51:33.626Z,30.10
2022-12-26T06:52:33.606Z,26.40
2022-12-26T06:53:33.618Z,28.60
2022-12-26T06:54:33.589Z,25.30
2022-12-26T06:55:33.571Z,30.90
2022-12-26T06:56:33.587Z,23.80
2022-12-26T06:57:33.546Z,25.40
2022-12-26T06:58:33.547Z,20.50
2022-12-26T06:59:33.536Z,27.10
2022-12-26T07:00:33.565Z,23.00
2022-12-26T07:01:33.651Z,25.20
2022-12-26T07:02:33.615Z,26.20
2022-12-26T07:03:33.494Z,27.50
2022-12-26T07:04:33.471Z,26.10
2022-12-26T07:05:33.500Z,27.70
2022-12-26T07:06:33.469Z,24.40
2022-12-26T07:07:33.462Z,21.80
2022-12-26T07:08:33.466Z,27.90
2022-12-26T07:09:34.117Z,27.00
2022-12-26T07:10:33.416Z,23.40
2022-12-26T07:11:33.444Z,24.30
2022-12-26T07:12:33.386Z,33.60
2022-12-26T07:13:33.390Z,25.40
2022-12-26T07:14:33.369Z,29.00
2022-12-26T07:15:33.376Z,28.10
2022-12-26T07:16:33.375Z,32.80
2022-12-26T07:17:33.336Z,34.30
2022-12-26T07:18:33.379Z,30.60
2022-12-26T07:19:33.320Z,33.20
2022-12-26T07:20:33.309Z,42.70
2022-12-26T07:21:39.793Z,29.80
2022-12-26T07:22:33.282Z,29.50
2022-12-26T07:23:33.269Z,35.10
2022-12-26T07:24:33.285Z,31.00
2022-12-26T07:25:33.254Z,31.30
2022-12-26T07:26:33.234Z,34.30
2022-12-26T07:27:33.241Z,32.80
2022-12-26T07:28:33.228Z,38.10
2022-12-26T07:29:33.207Z,32.60
2022-12-26T07:30:33.215Z,36.80
2022-12-26T07:31:33.235Z,35.20
2022-12-26T07:32:33.170Z,39.20
2022-12-26T07:33:33.169Z,37.70
2022-12-26T07:34:33.147Z,42.00
2022-12-26T07:35:33.205Z,44.00
2022-12-26T07:36:33.134Z,43.40
2022-12-26T07:37:33.118Z,33.10
2022-12-26T07:38:33.118Z,38.30
2022-12-26T07:39:33.116Z,34.30
2022-12-26T07:40:33.101Z,43.10
2022-12-26T07:41:33.100Z,50.60
2022-12-26T07:42:33.078Z,51.40
2022-12-26T07:43:33.050Z,42.90
2022-12-26T07:44:33.059Z,40.90
2022-12-26T07:45:33.071Z,47.30
2022-12-26T07:46:33.190Z,41.10
2022-12-26T07:47:33.024Z,41.40
2022-12-26T07:48:33.005Z,43.60
2022-12-26T07:49:32.994Z,96.60
2022-12-26T07:50:32.983Z,47.80
2022-12-26T07:51:32.968Z,36.10
2022-12-26T07:52:32.984Z,41.20
2022-12-26T07:53:32.940Z,46.20
2022-12-26T07:54:32.937Z,46.80
2022-12-26T07:55:32.945Z,47.90
2022-12-26T07:56:32.938Z,42.90
2022-12-26T07:57:49.356Z,44.00
2022-12-26T07:58:32.920Z,40.90
2022-12-26T07:59:32.897Z,40.70
2022-12-26T08:00:32.870Z,41.90
2022-12-26T08:01:33.052Z,41.20
2022-12-26T08:02:33.041Z,53.70
2022-12-26T08:03:32.883Z,61.40
2022-12-26T08:04:32.861Z,54.40
2022-12-26T08:05:32.812Z,58.50
2022-12-26T08:06:32.821Z,42.00
2022-12-26T08:07:32.801Z,50.90
2022-12-26T08:08:32.804Z,64.30
2022-12-26T08:09:32.782Z,52.60
2022-12-26T08:10:32.808Z,51.30
2022-12-26T08:11:32.746Z,63.70
2022-12-26T08:12:32.744Z,71.30
2022-12-26T08:13:32.778Z,45.80
2022-12-26T08:14:32.726Z,44.70
2022-12-26T08:15:32.721Z,57.00
2022-12-26T08:16:32.755Z,47.10
2022-12-26T08:17:32.703Z,45.90
2022-12-26T08:18:32.679Z,47.30
2022-12-26T08:19:32.677Z,50.00
2022-12-26T08:20:32.652Z,52.30
2022-12-26T08:21:32.701Z,73.70
2022-12-26T08:22:32.641Z,60.90
2022-12-26T08:23:32.622Z,48.20
2022-12-26T08:24:32.612Z,50.50
2022-12-26T08:25:32.610Z,74.90
2022-12-26T08:26:32.596Z,44.80
2022-12-26T08:27:32.607Z,48.70
2022-12-26T08:28:32.574Z,50.00
2022-12-26T08:29:32.562Z,68.50
2022-12-26T08:30:32.557Z,65.30
2022-12-26T08:31:32.554Z,65.20
2022-12-26T08:32:32.549Z,43.20
2022-12-26T08:33:32.513Z,50.00
2022-12-26T08:34:32.508Z,51.30
2022-12-26T08:35:32.508Z,68.90
2022-12-26T08:36:32.491Z,52.50
2022-12-26T08:37:32.489Z,49.80
2022-12-26T08:38:34.047Z,53.50
2022-12-26T08:39:32.453Z,52.90
2022-12-26T08:40:43.014Z,47.00
2022-12-26T08:41:32.455Z,46.10
2022-12-26T08:42:32.418Z,53.60
2022-12-26T08:43:53.215Z,46.70
2022-12-26T08:44:32.435Z,70.00
2022-12-26T08:45:32.444Z,52.40
2022-12-26T08:46:32.376Z,44.10
2022-12-26T08:47:32.368Z,46.00
2022-12-26T08:48:32.361Z,35.30
2022-12-26T08:49:32.365Z,46.40
2022-12-26T08:50:35.397Z,48.30
2022-12-26T08:51:32.345Z,40.30
2022-12-26T08:52:32.310Z,45.80
2022-12-26T08:53:32.304Z,43.30
2022-12-26T08:54:32.312Z,45.80
2022-12-26T08:55:32.274Z,44.60
2022-12-26T08:56:32.275Z,46.90
2022-12-26T08:57:32.257Z,42.10
2022-12-26T08:58:32.315Z,53.60
2022-12-26T08:59:32.260Z,44.80
2022-12-26T09:00:32.252Z,39.40
2022-12-26T09:01:32.399Z,38.90
2022-12-26T09:02:32.373Z,50.80
2022-12-26T09:03:32.232Z,68.10
2022-12-26T09:04:32.177Z,42.90
2022-12-26T09:05:32.173Z,57.00
2022-12-26T09:06:32.193Z,43.50
2022-12-26T09:07:32.158Z,51.20
2022-12-26T09:08:32.146Z,47.90
2022-12-26T09:09:32.134Z,41.30
2022-12-26T09:10:32.122Z,43.80
2022-12-26T09:11:32.103Z,49.70
2022-12-26T09:12:32.110Z,51.50
2022-12-26T09:13:32.134Z,38.80
2022-12-26T09:14:32.083Z,42.90
2022-12-26T09:15:32.067Z,42.10
2022-12-26T09:16:37.405Z,46.70
2022-12-26T09:17:32.143Z,42.20
2022-12-26T09:18:32.056Z,36.00
2022-12-26T09:19:32.007Z,42.90
2022-12-26T09:20:32.003Z,37.20
2022-12-26T09:21:31.997Z,34.60
2022-12-26T09:22:35.132Z,36.40
2022-12-26T09:23:32.010Z,43.30
2022-12-26T09:24:31.968Z,47.80
2022-12-26T09:25:31.998Z,41.40
2022-12-26T09:26:31.970Z,38.30
2022-12-26T09:27:31.945Z,46.20
2022-12-26T09:28:31.937Z,40.40
2022-12-26T09:29:31.941Z,36.10
2022-12-26T09:30:31.944Z,32.90
2022-12-26T09:31:31.924Z,38.80
2022-12-26T09:32:31.875Z,36.70
2022-12-26T09:33:31.910Z,35.00
2022-12-26T09:34:31.911Z,35.20
2022-12-26T09:35:31.881Z,36.50
2022-12-26T09:36:31.880Z,41.60
2022-12-26T09:37:31.835Z,31.70
2022-12-26T09:38:31.820Z,31.90
2022-12-26T09:39:31.812Z,36.60
2022-12-26T09:40:31.794Z,36.20
2022-12-26T09:41:31.804Z,32.90
2022-12-26T09:42:31.799Z,33.50
2022-12-26T09:43:31.764Z,34.30
2022-12-26T09:44:31.781Z,32.30
2022-12-26T09:45:31.769Z,40.20
2022-12-26T09:46:31.781Z,34.20
2022-12-26T09:47:31.741Z,36.40
2022-12-26T09:48:31.712Z,37.50
2022-12-26T09:49:31.699Z,32.80
2022-12-26T09:50:31.692Z,36.40
2022-12-26T09:51:31.673Z,35.90
2022-12-26T09:52:31.669Z,31.10
2022-12-26T09:53:31.680Z,31.90
2022-12-26T09:54:31.649Z,29.90
2022-12-26T09:55:31.677Z,36.70
2022-12-26T09:57:31.628Z,30.70
2022-12-26T09:58:31.645Z,30.90
2022-12-26T09:59:31.606Z,27.90
2022-12-26T10:00:31.615Z,31.60
2022-12-26T10:01:31.657Z,34.20
2022-12-26T10:02:31.742Z,33.80
2022-12-26T10:03:31.562Z,33.00
2022-12-26T10:04:31.554Z,37.10
2022-12-26T10:05:31.555Z,31.60
2022-12-26T10:06:31.545Z,34.60
2022-12-26T10:07:31.513Z,29.30
2022-12-26T10:08:31.506Z,35.70
2022-12-26T10:09:31.481Z,34.50
2022-12-26T10:10:31.483Z,31.60
2022-12-26T10:11:31.502Z,32.80
2022-12-26T10:12:31.463Z,35.50
2022-12-26T10:13:31.448Z,38.50
2022-12-26T10:14:31.428Z,33.00
2022-12-26T10:15:31.472Z,26.60
2022-12-26T10:16:31.423Z,31.20
2022-12-26T10:17:31.428Z,31.20
2022-12-26T10:18:31.386Z,31.20
2022-12-26T10:19:32.833Z,32.90
2022-12-26T10:20:31.366Z,29.20
2022-12-26T10:21:31.390Z,33.70
2022-12-26T10:22:31.354Z,35.40
2022-12-26T10:23:31.356Z,38.70
2022-12-26T10:24:31.325Z,32.80
2022-12-26T10:25:33.989Z,29.60
2022-12-26T10:26:31.301Z,33.50
2022-12-26T10:27:31.294Z,28.30
2022-12-26T10:28:31.282Z,32.10
2022-12-26T10:29:31.300Z,33.40
2022-12-26T10:30:31.274Z,30.90
2022-12-26T10:31:31.325Z,35.90
2022-12-26T10:32:31.235Z,28.10
2022-12-26T10:33:31.235Z,27.90
2022-12-26T10:34:31.251Z,33.00
2022-12-26T10:35:31.250Z,31.60
2022-12-26T10:36:31.193Z,26.70
2022-12-26T10:37:31.199Z,30.10
2022-12-26T10:38:31.179Z,33.70
2022-12-26T10:39:31.186Z,35.20
2022-12-26T10:40:31.161Z,29.00
2022-12-26T10:41:31.163Z,28.20
2022-12-26T10:42:31.119Z,28.20
2022-12-26T10:43:31.120Z,31.60
2022-12-26T10:44:31.110Z,35.60
2022-12-26T10:45:31.143Z,31.80
2022-12-26T10:46:31.118Z,26.00
2022-12-26T10:47:31.117Z,30.90
2022-12-26T10:48:31.062Z,24.70
2022-12-26T10:49:31.052Z,33.70
2022-12-26T10:50:31.048Z,31.40
2022-12-26T10:51:31.049Z,28.90
2022-12-26T10:52:31.022Z,27.60
2022-12-26T10:53:31.059Z,26.50
2022-12-26T10:54:30.999Z,28.80
2022-12-26T10:55:31.612Z,27.00
2022-12-26T10:56:30.980Z,27.90
2022-12-26T10:57:30.978Z,27.80
2022-12-26T10:58:30.955Z,35.80
2022-12-26T10:59:30.995Z,28.20
2022-12-26T11:00:30.929Z,27.00
2022-12-26T11:01:31.063Z,26.90
2022-12-26T11:02:31.245Z,27.80
2022-12-26T11:03:30.947Z,29.00
2022-12-26T11:05:02.022Z,26.40
2022-12-26T11:06:30.876Z,25.90
2022-12-26T11:07:30.859Z,22.20
2022-12-26T11:08:42.985Z,30.60
2022-12-26T11:09:30.834Z,26.60
2022-12-26T11:10:30.823Z,25.50
2022-12-26T11:11:30.849Z,24.30
2022-12-26T11:12:30.802Z,26.30
2022-12-26T11:13:30.788Z,27.60
2022-12-26T11:14:33.777Z,25.00
2022-12-26T11:15:30.763Z,25.60
2022-12-26T11:16:30.772Z,25.20
2022-12-26T11:17:30.766Z,22.20
2022-12-26T11:18:30.738Z,25.80
2022-12-26T11:19:30.723Z,23.60
2022-12-26T11:20:30.732Z,22.30
2022-12-26T11:21:30.719Z,22.10
2022-12-26T11:22:30.687Z,21.30
2022-12-26T11:23:30.725Z,22.80
2022-12-26T11:24:30.682Z,23.20
2022-12-26T11:25:30.663Z,22.00
2022-12-26T11:26:30.656Z,26.70
2022-12-26T11:27:30.640Z,26.60
2022-12-26T11:28:30.640Z,19.90
2022-12-26T11:29:30.636Z,21.80
2022-12-26T11:30:30.603Z,23.40
2022-12-26T11:31:30.636Z,22.20
2022-12-26T11:32:30.590Z,18.80
2022-12-26T11:33:30.579Z,22.80
2022-12-26T11:34:30.571Z,21.00
2022-12-26T11:35:30.561Z,23.00
2022-12-26T11:36:30.545Z,19.40
2022-12-26T11:37:30.537Z,19.50
2022-12-26T11:38:30.523Z,17.60
2022-12-26T11:39:30.507Z,21.80
2022-12-26T11:40:30.510Z,21.80
2022-12-26T11:41:30.499Z,22.60
2022-12-26T11:42:30.472Z,20.60
2022-12-26T11:43:30.452Z,19.20
2022-12-26T11:44:30.454Z,21.30
2022-12-26T11:45:35.466Z,21.60
2022-12-26T11:46:30.583Z,18.30
2022-12-26T11:47:30.434Z,20.10
2022-12-26T11:48:30.405Z,19.90
2022-12-26T11:49:30.398Z,16.60
2022-12-26T11:50:30.395Z,19.40
2022-12-26T11:51:30.381Z,20.40
2022-12-26T11:52:30.368Z,18.50
2022-12-26T11:53:30.375Z,18.90
2022-12-26T11:54:30.348Z,19.70
2022-12-26T11:55:30.349Z,17.20
2022-12-26T11:56:30.347Z,18.80
2022-12-26T11:57:30.321Z,17.70
2022-12-26T11:58:30.292Z,20.10
2022-12-26T11:59:30.339Z,17.80
2022-12-26T12:00:30.298Z,19.50
2022-12-26T12:01:30.309Z,21.20
2022-12-26T12:02:30.307Z,23.00
2022-12-26T12:03:30.283Z,20.10
2022-12-26T12:04:30.264Z,20.40
2022-12-26T12:05:30.245Z,17.70
2022-12-26T12:06:30.269Z,20.30
2022-12-26T12:07:30.835Z,16.40
2022-12-26T12:08:30.186Z,19.60
2022-12-26T12:09:30.180Z,15.50
2022-12-26T12:10:30.160Z,20.50
2022-12-26T12:11:30.172Z,19.40
2022-12-26T12:12:30.139Z,18.10
2022-12-26T12:13:30.134Z,19.30
2022-12-26T12:14:30.119Z,21.10
2022-12-26T12:15:30.119Z,20.00
2022-12-26T12:16:30.267Z,19.70
2022-12-26T12:17:30.127Z,15.70
2022-12-26T12:18:30.069Z,17.50
2022-12-26T12:19:30.113Z,16.20
2022-12-26T12:20:30.059Z,17.50
2022-12-26T12:21:30.037Z,17.20
2022-12-26T12:22:30.027Z,15.90
2022-12-26T12:23:30.038Z,17.40
2022-12-26T12:24:30.004Z,16.80
2022-12-26T12:25:29.993Z,19.00
2022-12-26T12:26:29.981Z,16.20
2022-12-26T12:27:29.977Z,15.20
2022-12-26T12:28:29.963Z,15.90
2022-12-26T12:29:29.966Z,13.30
2022-12-26T12:30:29.940Z,15.40
2022-12-26T12:31:29.979Z,14.80
2022-12-26T12:32:29.920Z,15.20
2022-12-26T12:33:29.916Z,15.10
2022-12-26T12:34:29.900Z,14.70
2022-12-26T12:35:29.910Z,15.90
2022-12-26T12:36:29.887Z,17.50
2022-12-26T12:37:29.864Z,12.40
2022-12-26T12:38:29.850Z,13.90
2022-12-26T12:39:29.838Z,16.40
2022-12-26T12:40:29.824Z,15.60
2022-12-26T12:41:29.843Z,16.00
2022-12-26T12:42:29.807Z,13.20
2022-12-26T12:43:29.794Z,15.60
2022-12-26T12:44:29.786Z,13.50
2022-12-26T12:45:29.809Z,15.80
2022-12-26T12:46:29.786Z,14.00
2022-12-26T12:47:29.766Z,16.00
2022-12-26T12:48:29.751Z,15.80
2022-12-26T12:49:29.754Z,13.60
2022-12-26T12:50:29.746Z,13.10
2022-12-26T12:51:29.730Z,15.30
2022-12-26T12:52:29.686Z,13.60
2022-12-26T12:53:29.696Z,12.70